createdAt,value
2023-04-01T00:00:50.730Z,30.54
2023-04-01T00:01:50.769Z,30.51
2023-04-01T00:02:50.947Z,30.57
2023-04-01T00:03:50.933Z,30.48
2023-04-01T00:04:50.812Z,30.52
2023-04-01T00:05:50.824Z,30.47
2023-04-01T00:06:50.861Z,30.50
2023-04-01T00:07:50.886Z,30.54
2023-04-01T00:08:50.903Z,30.48
2023-04-01T00:09:50.928Z,30.50
2023-04-01T00:10:51.862Z,30.48
2023-04-01T00:11:51.007Z,30.43
2023-04-01T00:12:51.120Z,30.43
2023-04-01T00:13:51.171Z,30.40
2023-04-01T00:14:51.362Z,30.42
2023-04-01T00:15:51.386Z,30.41
2023-04-01T00:16:51.454Z,30.36
2023-04-01T00:17:51.529Z,30.28
2023-04-01T00:18:51.580Z,30.31
2023-04-01T00:19:51.648Z,30.30
2023-04-01T00:20:51.713Z,30.30
2023-04-01T00:21:51.781Z,30.27
2023-04-01T00:22:51.845Z,30.26
2023-04-01T00:23:52.138Z,30.29
2023-04-01T00:24:51.997Z,30.26
2023-04-01T00:25:52.102Z,30.23
2023-04-01T00:26:52.166Z,30.25
2023-04-01T00:27:52.258Z,30.20
2023-04-01T00:28:52.362Z,30.22
2023-04-01T00:29:52.396Z,30.22
2023-04-01T00:30:52.452Z,30.22
2023-04-01T00:31:52.548Z,30.20
2023-04-01T00:32:52.622Z,30.14
2023-04-01T00:33:52.794Z,30.15
2023-04-01T00:34:52.759Z,30.16
2023-04-01T00:35:52.838Z,30.11
2023-04-01T00:36:52.872Z,30.14
2023-04-01T00:37:52.939Z,30.11
2023-04-01T00:38:53.012Z,30.11
2023-04-01T00:39:53.084Z,30.11
2023-04-01T00:40:53.143Z,30.10
2023-04-01T00:41:53.215Z,30.11
2023-04-01T00:42:53.269Z,30.11
2023-04-01T00:43:53.342Z,30.07
2023-04-01T00:44:53.428Z,30.08
2023-04-01T00:45:53.476Z,30.04
2023-04-01T00:46:53.740Z,30.05
2023-04-01T00:47:53.684Z,30.03
2023-04-01T00:48:53.713Z,30.08
2023-04-01T00:49:54.144Z,30.03
2023-04-01T00:50:54.203Z,30.04
2023-04-01T00:51:54.196Z,30.04
2023-04-01T00:52:54.190Z,29.99
2023-04-01T00:53:54.212Z,30.04
2023-04-01T00:54:54.229Z,30.02
2023-04-01T00:55:54.210Z,30.05
2023-04-01T00:56:54.359Z,30.02
2023-04-01T00:57:54.336Z,30.00
2023-04-01T00:58:54.400Z,30.02
2023-04-01T00:59:54.477Z,29.97
2023-04-01T01:00:54.615Z,29.99
2023-04-01T01:01:54.634Z,29.99
2023-04-01T01:02:54.764Z,29.96
2023-04-01T01:03:55.133Z,30.00
2023-04-01T01:04:55.136Z,29.99
2023-04-01T01:05:55.134Z,29.96
2023-04-01T01:06:55.192Z,30.03
2023-04-01T01:07:55.161Z,29.97
2023-04-01T01:08:55.138Z,29.92
2023-04-01T01:09:55.173Z,29.98
2023-04-01T01:10:55.242Z,29.95
2023-04-01T01:11:55.306Z,29.97
2023-04-01T01:12:55.363Z,29.98
2023-04-01T01:13:55.443Z,30.01
2023-04-01T01:14:55.532Z,29.96
2023-04-01T01:15:55.607Z,29.96
2023-04-01T01:16:55.850Z,29.93
2023-04-01T01:17:55.803Z,29.97
2023-04-01T01:18:55.787Z,29.96
2023-04-01T01:19:55.853Z,29.96
2023-04-01T01:20:55.926Z,29.95
2023-04-01T01:21:55.998Z,29.92
2023-04-01T01:22:56.055Z,29.89
2023-04-01T01:23:56.121Z,29.96
2023-04-01T01:24:56.202Z,29.92
2023-04-01T01:25:56.268Z,29.93
2023-04-01T01:26:56.345Z,29.90
2023-04-01T01:27:56.406Z,29.89
2023-04-01T01:28:56.470Z,29.92
2023-04-01T01:29:56.537Z,29.90
2023-04-01T01:30:56.656Z,29.91
2023-04-01T01:31:56.698Z,29.89
2023-04-01T01:32:56.875Z,29.88
2023-04-01T01:33:56.837Z,29.91
2023-04-01T01:34:56.913Z,29.91
2023-04-01T01:35:57.021Z,29.86
2023-04-01T01:36:57.031Z,29.92
2023-04-01T01:37:57.898Z,29.83
2023-04-01T01:38:57.179Z,29.88
2023-04-01T01:39:57.260Z,29.89
2023-04-01T01:40:57.322Z,29.86
2023-04-01T01:41:57.384Z,29.89
2023-04-01T01:42:57.473Z,29.88
2023-04-01T01:43:57.550Z,29.85
2023-04-01T01:44:57.628Z,29.88
2023-04-01T01:45:57.751Z,29.83
2023-04-01T01:46:57.804Z,29.88
2023-04-01T01:47:57.902Z,29.91
2023-04-01T01:48:57.963Z,29.86
2023-04-01T01:49:57.994Z,29.86
2023-04-01T01:50:58.078Z,29.85
2023-04-01T01:51:58.164Z,29.89
2023-04-01T01:52:58.212Z,29.88
2023-04-01T01:53:58.285Z,29.83
2023-04-01T01:54:58.362Z,29.81
2023-04-01T01:55:58.440Z,29.83
2023-04-01T01:56:58.571Z,29.81
2023-04-01T01:57:58.593Z,29.85
2023-04-01T01:58:58.659Z,29.85
2023-04-01T01:59:58.726Z,29.85
2023-04-01T02:00:58.797Z,29.82
2023-04-01T02:01:58.920Z,29.86
2023-04-01T02:02:58.938Z,29.79
2023-04-01T02:03:58.984Z,29.82
2023-04-01T02:04:59.167Z,29.85
2023-04-01T02:06:00.189Z,29.83
2023-04-01T02:06:59.192Z,29.79
2023-04-01T02:07:59.256Z,29.79
2023-04-01T02:08:59.336Z,29.79
2023-04-01T02:09:59.397Z,29.79
2023-04-01T02:10:59.458Z,29.81
2023-04-01T02:11:59.507Z,29.82
2023-04-01T02:12:59.590Z,29.77
2023-04-01T02:13:59.648Z,29.81
2023-04-01T02:14:59.714Z,29.81
2023-04-01T02:15:59.816Z,29.82
2023-04-01T02:17:00.188Z,29.77
2023-04-01T02:18:00.294Z,29.81
2023-04-01T02:19:00.265Z,29.78
2023-04-01T02:20:00.261Z,29.75
2023-04-01T02:21:00.205Z,29.78
2023-04-01T02:22:00.198Z,29.75
2023-04-01T02:23:00.176Z,29.77
2023-04-01T02:24:00.228Z,29.76
2023-04-01T02:25:00.293Z,29.78
2023-04-01T02:26:00.372Z,29.77
2023-04-01T02:27:00.464Z,29.74
2023-04-01T02:28:00.505Z,29.77
2023-04-01T02:29:00.565Z,29.74
2023-04-01T02:30:00.629Z,29.77
2023-04-01T02:31:00.719Z,29.71
2023-04-01T02:32:00.761Z,29.68
2023-04-01T02:33:01.240Z,29.68
2023-04-01T02:34:01.176Z,29.72
2023-04-01T02:35:01.172Z,29.71
2023-04-01T02:36:01.184Z,29.72
2023-04-01T02:37:01.217Z,29.67
2023-04-01T02:38:01.176Z,29.71
2023-04-01T02:39:01.195Z,29.70
2023-04-01T02:40:01.280Z,29.69
2023-04-01T02:41:01.310Z,29.70
2023-04-01T02:42:01.373Z,29.67
2023-04-01T02:43:01.451Z,29.69
2023-04-01T02:44:01.504Z,29.66
2023-04-01T02:45:01.576Z,29.67
2023-04-01T02:46:01.617Z,29.64
2023-04-01T02:47:01.849Z,29.66
2023-04-01T02:48:01.801Z,29.62
2023-04-01T02:49:01.763Z,29.64
2023-04-01T02:50:01.859Z,29.67
2023-04-01T02:51:01.895Z,29.60
2023-04-01T02:52:01.961Z,29.63
2023-04-01T02:53:02.039Z,29.60
2023-04-01T02:54:02.068Z,29.62
2023-04-01T02:55:02.189Z,29.63
2023-04-01T02:56:02.193Z,29.62
2023-04-01T02:57:02.321Z,29.61
2023-04-01T02:58:02.279Z,29.64
2023-04-01T02:59:02.354Z,29.58
2023-04-01T03:00:02.394Z,29.59
2023-04-01T03:01:02.470Z,29.59
2023-04-01T03:02:02.509Z,29.55
2023-04-01T03:03:02.739Z,29.55
2023-04-01T03:04:02.571Z,29.59
2023-04-01T03:05:02.620Z,29.54
2023-04-01T03:06:02.684Z,29.52
2023-04-01T03:07:02.733Z,29.53
2023-04-01T03:08:02.809Z,29.56
2023-04-01T03:09:02.878Z,29.51
2023-04-01T03:10:02.907Z,29.51
2023-04-01T03:11:02.916Z,29.51
2023-04-01T03:12:02.957Z,29.52
2023-04-01T03:13:03.025Z,29.55
2023-04-01T03:14:03.113Z,29.50
2023-04-01T03:15:10.615Z,29.54
2023-04-01T03:16:03.202Z,29.51
2023-04-01T03:17:03.156Z,29.55
2023-04-01T03:18:03.219Z,29.51
2023-04-01T03:19:03.208Z,29.45
2023-04-01T03:20:03.360Z,29.50
2023-04-01T03:21:03.207Z,29.47
2023-04-01T03:22:03.255Z,29.48
2023-04-01T03:23:03.235Z,29.54
2023-04-01T03:24:03.244Z,29.44
2023-04-01T03:25:03.285Z,29.45
2023-04-01T03:26:03.288Z,29.46
2023-04-01T03:27:03.312Z,29.48
2023-04-01T03:28:03.308Z,29.44
2023-04-01T03:29:03.335Z,29.44
2023-04-01T03:30:03.415Z,29.40
2023-04-01T03:31:03.358Z,29.45
2023-04-01T03:32:03.354Z,29.45
2023-04-01T03:33:03.482Z,29.45
2023-04-01T03:34:03.388Z,29.43
2023-04-01T03:35:03.403Z,29.47
2023-04-01T03:36:03.471Z,29.44
2023-04-01T03:37:03.439Z,29.45
2023-04-01T03:38:03.450Z,29.44
2023-04-01T03:39:04.427Z,29.43
2023-04-01T03:40:03.489Z,29.40
2023-04-01T03:41:03.583Z,29.44
2023-04-01T03:42:03.625Z,29.44
2023-04-01T03:43:03.710Z,29.39
2023-04-01T03:44:03.756Z,29.40
2023-04-01T03:45:03.838Z,29.40
2023-04-01T03:46:03.970Z,29.44
2023-04-01T03:47:04.009Z,29.39
2023-04-01T03:48:04.103Z,29.37
2023-04-01T03:49:04.301Z,29.42
2023-04-01T03:50:04.224Z,29.44
2023-04-01T03:51:04.304Z,29.35
2023-04-01T03:52:04.372Z,29.44
2023-04-01T03:53:04.433Z,29.36
2023-04-01T03:54:04.500Z,29.37
2023-04-01T03:55:04.566Z,29.37
2023-04-01T03:56:04.622Z,29.36
2023-04-01T03:57:04.747Z,29.39
2023-04-01T03:58:04.758Z,29.44
2023-04-01T03:59:04.826Z,29.40
2023-04-01T04:00:04.924Z,29.40
2023-04-01T04:01:04.986Z,29.39
2023-04-01T04:02:06.223Z,29.36
2023-04-01T04:03:05.174Z,29.39
2023-04-01T04:04:05.183Z,29.40
2023-04-01T04:05:05.254Z,29.43
2023-04-01T04:06:05.319Z,29.33
2023-04-01T04:07:05.376Z,29.36
2023-04-01T04:08:05.450Z,29.36
2023-04-01T04:09:05.513Z,29.37
2023-04-01T04:10:05.596Z,29.33
2023-04-01T04:11:05.651Z,29.30
2023-04-01T04:12:06.243Z,29.33
2023-04-01T04:13:06.465Z,29.38
2023-04-01T04:14:06.189Z,29.39
2023-04-01T04:15:06.240Z,29.33
2023-04-01T04:16:06.280Z,29.36
2023-04-01T04:17:06.231Z,29.32
2023-04-01T04:18:06.321Z,29.33
2023-04-01T04:19:06.247Z,29.39
2023-04-01T04:20:06.273Z,29.32
2023-04-01T04:21:06.309Z,29.31
2023-04-01T04:22:06.388Z,29.26
2023-04-01T04:23:06.463Z,29.29
2023-04-01T04:24:06.541Z,29.26
2023-04-01T04:25:06.625Z,29.33
2023-04-01T04:26:06.699Z,29.35
2023-04-01T04:27:06.763Z,29.33
2023-04-01T04:28:07.451Z,29.29
2023-04-01T04:29:07.477Z,29.32
2023-04-01T04:30:07.253Z,29.33
2023-04-01T04:31:07.306Z,29.29
2023-04-01T04:32:07.246Z,29.32
2023-04-01T04:33:07.277Z,29.29
2023-04-01T04:34:07.243Z,29.29
2023-04-01T04:35:07.277Z,29.33
2023-04-01T04:36:07.351Z,29.25
2023-04-01T04:37:07.399Z,29.28
2023-04-01T04:38:08.452Z,29.22
2023-04-01T04:39:07.563Z,29.25
2023-04-01T04:40:07.626Z,29.26
2023-04-01T04:41:07.700Z,29.26
2023-04-01T04:42:07.960Z,29.26
2023-04-01T04:43:07.850Z,29.29
2023-04-01T04:44:07.913Z,29.26
2023-04-01T04:45:08.012Z,29.26
2023-04-01T04:46:08.055Z,29.25
2023-04-01T04:47:08.291Z,29.29
2023-04-01T04:48:09.045Z,29.28
2023-04-01T04:49:08.299Z,29.28
2023-04-01T04:50:08.382Z,29.24
2023-04-01T04:51:08.442Z,29.25
2023-04-01T04:52:08.533Z,29.28
2023-04-01T04:53:08.585Z,29.28
2023-04-01T04:54:08.674Z,29.28
2023-04-01T04:55:08.732Z,29.28
2023-04-01T04:56:08.828Z,29.29
2023-04-01T04:57:08.926Z,29.26
2023-04-01T04:58:08.938Z,29.25
2023-04-01T04:59:09.050Z,29.26
2023-04-01T05:00:09.109Z,29.23
2023-04-01T05:01:09.256Z,29.28
2023-04-01T05:02:09.272Z,29.29
2023-04-01T05:03:09.403Z,29.28
2023-04-01T05:04:09.393Z,29.26
2023-04-01T05:05:09.479Z,29.28
2023-04-01T05:06:09.561Z,29.28
2023-04-01T05:07:09.634Z,29.29
2023-04-01T05:08:10.468Z,29.22
2023-04-01T05:09:09.767Z,29.28
2023-04-01T05:10:09.982Z,29.25
2023-04-01T05:11:13.639Z,29.25
2023-04-01T05:12:09.920Z,29.25
2023-04-01T05:13:09.938Z,29.25
2023-04-01T05:14:10.465Z,29.25
2023-04-01T05:15:09.995Z,29.25
2023-04-01T05:16:09.982Z,29.26
2023-04-01T05:17:11.073Z,29.29
2023-04-01T05:18:10.050Z,29.32
2023-04-01T05:19:10.025Z,29.27
2023-04-01T05:20:10.049Z,29.23
2023-04-01T05:21:13.263Z,29.25
2023-04-01T05:22:10.063Z,29.26
2023-04-01T05:23:10.089Z,29.25
2023-04-01T05:24:10.116Z,29.30
2023-04-01T05:25:13.291Z,29.25
2023-04-01T05:26:10.145Z,29.25
2023-04-01T05:27:10.180Z,29.28
2023-04-01T05:28:10.142Z,29.28
2023-04-01T05:29:10.146Z,29.29
2023-04-01T05:30:10.156Z,29.23
2023-04-01T05:31:13.307Z,29.26
2023-04-01T05:32:13.274Z,29.27
2023-04-01T05:33:10.222Z,29.25
2023-04-01T05:34:10.211Z,29.29
2023-04-01T05:35:10.236Z,29.26
2023-04-01T05:36:10.282Z,29.25
2023-04-01T05:37:10.263Z,29.28
2023-04-01T05:38:10.278Z,29.26
2023-04-01T05:39:10.288Z,29.23
2023-04-01T05:40:10.312Z,29.25
2023-04-01T05:41:10.320Z,29.23
2023-04-01T05:42:10.991Z,29.25
2023-04-01T05:43:10.357Z,29.23
2023-04-01T05:44:10.368Z,29.26
2023-04-01T05:45:10.469Z,29.18
2023-04-01T05:46:10.446Z,29.23
2023-04-01T05:47:10.422Z,29.22
2023-04-01T05:48:10.458Z,29.25
2023-04-01T05:49:10.487Z,29.20
2023-04-01T05:50:10.475Z,29.25
2023-04-01T05:51:10.506Z,29.23
2023-04-01T05:52:10.502Z,29.26
2023-04-01T05:53:10.522Z,29.19
2023-04-01T05:54:10.542Z,29.23
2023-04-01T05:55:10.567Z,29.23
2023-04-01T05:56:11.487Z,29.25
2023-04-01T05:57:10.607Z,29.26
2023-04-01T05:58:10.632Z,29.23
2023-04-01T05:59:10.699Z,29.22
2023-04-01T06:00:10.775Z,29.23
2023-04-01T06:01:14.103Z,29.22
2023-04-01T06:02:10.874Z,29.25
2023-04-01T06:03:10.920Z,29.24
2023-04-01T06:04:10.944Z,29.25
2023-04-01T06:05:10.960Z,29.22
2023-04-01T06:06:10.947Z,29.23
2023-04-01T06:07:10.977Z,29.24
2023-04-01T06:08:10.999Z,29.27
2023-04-01T06:09:11.007Z,29.27
2023-04-01T06:10:11.021Z,29.20
2023-04-01T06:11:11.041Z,29.23
2023-04-01T06:12:11.064Z,29.20
2023-04-01T06:13:11.073Z,29.19
2023-04-01T06:14:11.122Z,29.24
2023-04-01T06:15:11.109Z,29.22
2023-04-01T06:16:11.187Z,29.22
2023-04-01T06:17:11.158Z,29.25
2023-04-01T06:18:11.259Z,29.22
2023-04-01T06:19:11.190Z,29.23
2023-04-01T06:20:11.218Z,29.26
2023-04-01T06:21:11.253Z,29.24
2023-04-01T06:22:11.247Z,29.22
2023-04-01T06:23:11.290Z,29.25
2023-04-01T06:24:11.292Z,29.22
2023-04-01T06:25:11.306Z,29.19
2023-04-01T06:26:11.324Z,29.24
2023-04-01T06:27:11.355Z,29.22
2023-04-01T06:28:11.387Z,29.22
2023-04-01T06:29:11.381Z,29.24
2023-04-01T06:30:11.461Z,29.24
2023-04-01T06:31:11.594Z,29.19
2023-04-01T06:32:11.649Z,29.23
2023-04-01T06:33:11.695Z,29.22
2023-04-01T06:34:11.742Z,29.22
2023-04-01T06:35:11.834Z,29.19
2023-04-01T06:36:12.328Z,29.19
2023-04-01T06:37:12.347Z,29.20
2023-04-01T06:38:12.319Z,29.20
2023-04-01T06:39:12.317Z,29.23
2023-04-01T06:40:12.341Z,29.20
2023-04-01T06:41:12.505Z,29.19
2023-04-01T06:42:12.314Z,29.24
2023-04-01T06:43:12.337Z,29.22
2023-04-01T06:44:12.389Z,29.16
2023-04-01T06:45:15.000Z,29.20
2023-04-01T06:46:12.470Z,29.17
2023-04-01T06:47:12.464Z,29.15
2023-04-01T06:48:12.748Z,29.22
2023-04-01T06:49:12.502Z,29.16
2023-04-01T06:50:12.509Z,29.19
2023-04-01T06:51:12.526Z,29.17
2023-04-01T06:52:13.329Z,29.15
2023-04-01T06:53:12.592Z,29.17
2023-04-01T06:54:12.574Z,29.13
2023-04-01T06:55:12.588Z,29.18
2023-04-01T06:56:12.600Z,29.18
2023-04-01T06:57:12.701Z,29.17
2023-04-01T06:58:12.643Z,29.15
2023-04-01T06:59:12.641Z,29.16
2023-04-01T07:00:12.660Z,29.13
2023-04-01T07:01:12.681Z,29.18
2023-04-01T07:02:12.675Z,29.15
2023-04-01T07:03:12.720Z,29.12
2023-04-01T07:04:12.769Z,29.13
2023-04-01T07:05:12.722Z,29.12
2023-04-01T07:06:13.517Z,29.13
2023-04-01T07:07:12.778Z,29.12
2023-04-01T07:08:13.066Z,29.12
2023-04-01T07:09:15.536Z,29.12
2023-04-01T07:10:12.894Z,29.11
2023-04-01T07:11:12.908Z,29.08
2023-04-01T07:12:12.919Z,29.08
2023-04-01T07:13:13.330Z,29.07
2023-04-01T07:14:13.327Z,29.04
2023-04-01T07:15:13.337Z,29.11
2023-04-01T07:16:13.509Z,29.07
2023-04-01T07:17:13.374Z,29.03
2023-04-01T07:18:13.325Z,29.00
2023-04-01T07:19:13.336Z,29.01
2023-04-01T07:20:13.356Z,29.00
2023-04-01T07:21:13.328Z,29.03
2023-04-01T07:22:14.015Z,28.99
2023-04-01T07:23:13.335Z,28.95
2023-04-01T07:24:13.335Z,29.01
2023-04-01T07:25:13.383Z,28.99
2023-04-01T07:26:13.331Z,28.95
2023-04-01T07:27:14.005Z,28.93
2023-04-01T07:28:13.333Z,29.00
2023-04-01T07:29:13.337Z,28.95
2023-04-01T07:30:14.012Z,28.99
2023-04-01T07:31:13.411Z,28.95
2023-04-01T07:32:13.345Z,28.99
2023-04-01T07:33:13.336Z,28.92
2023-04-01T07:34:13.340Z,28.98
2023-04-01T07:35:13.387Z,28.96
2023-04-01T07:36:13.564Z,28.95
2023-04-01T07:37:13.509Z,28.99
2023-04-01T07:38:13.617Z,28.98
2023-04-01T07:39:13.625Z,28.95
2023-04-01T07:40:13.712Z,28.99
2023-04-01T07:41:13.781Z,29.00
2023-04-01T07:42:13.807Z,28.95
2023-04-01T07:43:13.873Z,28.98
2023-04-01T07:44:13.941Z,28.96
2023-04-01T07:45:13.995Z,28.96
2023-04-01T07:46:14.115Z,28.98
2023-04-01T07:47:14.116Z,29.00
2023-04-01T07:48:14.171Z,28.96
2023-04-01T07:49:14.205Z,28.95
2023-04-01T07:50:14.287Z,28.95
2023-04-01T07:51:14.351Z,28.98
2023-04-01T07:52:14.432Z,28.96
2023-04-01T07:53:14.522Z,28.99
2023-04-01T07:54:14.596Z,28.96
2023-04-01T07:55:14.656Z,28.98
2023-04-01T07:56:14.722Z,29.01
2023-04-01T07:57:14.868Z,28.96
2023-04-01T07:58:15.528Z,28.99
2023-04-01T07:59:15.035Z,28.95
2023-04-01T08:00:14.975Z,28.99
2023-04-01T08:01:15.041Z,29.00
2023-04-01T08:02:15.111Z,28.97
2023-04-01T08:03:15.295Z,28.96
2023-04-01T08:04:15.376Z,28.95
2023-04-01T08:05:15.327Z,29.00
2023-04-01T08:06:15.415Z,28.98
2023-04-01T08:07:16.033Z,28.97
2023-04-01T08:08:15.545Z,28.96
2023-04-01T08:09:15.607Z,28.96
2023-04-01T08:10:15.678Z,28.93
2023-04-01T08:11:15.744Z,28.92
2023-04-01T08:12:15.809Z,28.94
2023-04-01T08:13:15.898Z,28.95
2023-04-01T08:14:15.951Z,28.91
2023-04-01T08:15:16.019Z,28.94
2023-04-01T08:16:19.426Z,28.94
2023-04-01T08:17:16.098Z,28.92
2023-04-01T08:18:16.111Z,28.89
2023-04-01T08:19:16.127Z,28.95
2023-04-01T08:20:16.154Z,28.91
2023-04-01T08:21:16.158Z,28.91
2023-04-01T08:22:16.174Z,28.94
2023-04-01T08:23:16.190Z,28.94
2023-04-01T08:24:16.193Z,28.91
2023-04-01T08:25:16.213Z,28.95
2023-04-01T08:26:16.252Z,28.92
2023-04-01T08:27:16.234Z,28.88
2023-04-01T08:28:16.250Z,28.91
2023-04-01T08:29:16.285Z,28.87
2023-04-01T08:30:16.288Z,28.90
2023-04-01T08:31:16.346Z,28.84
2023-04-01T08:32:16.334Z,28.88
2023-04-01T08:33:16.327Z,28.86
2023-04-01T08:34:16.318Z,28.80
2023-04-01T08:35:16.331Z,28.86
2023-04-01T08:36:16.369Z,28.83
2023-04-01T08:37:16.528Z,28.80
2023-04-01T08:38:16.403Z,28.82
2023-04-01T08:39:16.465Z,28.79
2023-04-01T08:40:16.520Z,28.85
2023-04-01T08:41:16.579Z,28.80
2023-04-01T08:42:16.675Z,28.83
2023-04-01T08:43:16.743Z,28.79
2023-04-01T08:44:16.807Z,28.78
2023-04-01T08:45:16.905Z,28.83
2023-04-01T08:46:16.989Z,28.78
2023-04-01T08:47:17.022Z,28.78
2023-04-01T08:48:17.107Z,28.79
2023-04-01T08:49:17.544Z,28.78
2023-04-01T08:50:17.235Z,28.77
2023-04-01T08:51:17.310Z,28.78
2023-04-01T08:52:17.371Z,28.75
2023-04-01T08:53:18.392Z,28.76
2023-04-01T08:54:17.519Z,28.74
2023-04-01T08:55:17.561Z,28.79
2023-04-01T08:56:17.632Z,28.76
2023-04-01T08:57:17.718Z,28.77
2023-04-01T08:58:17.759Z,28.74
2023-04-01T08:59:17.837Z,28.75
2023-04-01T09:00:17.903Z,28.77
2023-04-01T09:01:17.995Z,28.74
2023-04-01T09:02:18.569Z,28.77
2023-04-01T09:03:18.521Z,28.74
2023-04-01T09:04:17.310Z,28.73
2023-04-01T09:05:25.384Z,28.77
2023-04-01T09:06:18.516Z,28.73
2023-04-01T09:07:18.490Z,28.77
2023-04-01T09:08:18.388Z,28.73
2023-04-01T09:09:18.467Z,28.74
2023-04-01T09:10:18.474Z,28.70
2023-04-01T09:11:18.390Z,28.65
2023-04-01T09:12:18.494Z,28.68
2023-04-01T09:13:18.517Z,28.67
2023-04-01T09:14:19.413Z,28.70
2023-04-01T09:15:18.624Z,28.67
2023-04-01T09:16:25.612Z,28.70
2023-04-01T09:17:18.746Z,28.62
2023-04-01T09:18:18.720Z,28.63
2023-04-01T09:19:18.723Z,28.65
2023-04-01T09:20:18.738Z,28.59
2023-04-01T09:21:18.765Z,28.61
2023-04-01T09:22:18.750Z,28.62
2023-04-01T09:23:18.815Z,28.63
2023-04-01T09:24:18.785Z,28.61
2023-04-01T09:25:19.408Z,28.61
2023-04-01T09:26:18.845Z,28.64
2023-04-01T09:27:19.565Z,28.62
2023-04-01T09:28:18.977Z,28.70
2023-04-01T09:29:19.418Z,28.65
2023-04-01T09:30:19.521Z,28.61
2023-04-01T09:31:19.447Z,28.64
2023-04-01T09:32:19.445Z,28.62
2023-04-01T09:33:19.419Z,28.61
2023-04-01T09:34:19.410Z,28.58
2023-04-01T09:35:19.565Z,28.62
2023-04-01T09:36:19.483Z,28.60
2023-04-01T09:37:19.523Z,28.57
2023-04-01T09:38:19.587Z,28.58
2023-04-01T09:39:19.649Z,28.60
2023-04-01T09:40:19.814Z,28.56
2023-04-01T09:41:19.763Z,28.60
2023-04-01T09:42:20.571Z,28.58
2023-04-01T09:43:19.882Z,28.58
2023-04-01T09:44:19.966Z,28.61
2023-04-01T09:45:20.003Z,28.56
2023-04-01T09:46:20.558Z,28.52
2023-04-01T09:47:21.100Z,28.60
2023-04-01T09:48:21.074Z,28.53
2023-04-01T09:49:20.422Z,28.57
2023-04-01T09:50:20.430Z,28.55
2023-04-01T09:51:20.423Z,28.57
2023-04-01T09:52:20.490Z,28.50
2023-04-01T09:53:20.558Z,28.55
2023-04-01T09:54:20.634Z,28.50
2023-04-01T09:55:21.074Z,28.55
2023-04-01T09:56:20.769Z,28.53
2023-04-01T09:57:21.580Z,28.52
2023-04-01T09:58:20.904Z,28.52
2023-04-01T09:59:20.993Z,28.48
2023-04-01T10:00:21.084Z,28.52
2023-04-01T10:01:21.198Z,28.50
2023-04-01T10:02:21.212Z,28.52
2023-04-01T10:03:21.311Z,28.53
2023-04-01T10:04:21.361Z,28.48
2023-04-01T10:05:21.600Z,28.52
2023-04-01T10:06:21.472Z,28.57
2023-04-01T10:07:21.528Z,28.55
2023-04-01T10:08:21.610Z,28.55
2023-04-01T10:09:21.674Z,28.49
2023-04-01T10:10:21.757Z,28.56
2023-04-01T10:11:21.815Z,28.56
2023-04-01T10:12:21.898Z,28.50
2023-04-01T10:13:21.948Z,28.53
2023-04-01T10:14:22.016Z,28.57
2023-04-01T10:15:22.083Z,28.57
2023-04-01T10:16:22.167Z,28.53
2023-04-01T10:17:22.211Z,28.57
2023-04-01T10:18:22.287Z,28.50
2023-04-01T10:19:22.391Z,28.47
2023-04-01T10:20:22.449Z,28.51
2023-04-01T10:21:22.585Z,28.51
2023-04-01T10:22:22.586Z,28.48
2023-04-01T10:23:22.680Z,28.51
2023-04-01T10:24:23.596Z,28.52
2023-04-01T10:25:22.795Z,28.51
2023-04-01T10:26:22.860Z,28.54
2023-04-01T10:27:22.932Z,28.52
2023-04-01T10:28:23.001Z,28.50
2023-04-01T10:29:23.070Z,28.44
2023-04-01T10:30:23.137Z,28.51
2023-04-01T10:31:23.220Z,28.49
2023-04-01T10:32:23.316Z,28.48
2023-04-01T10:33:23.360Z,28.52
2023-04-01T10:34:23.581Z,28.48
2023-04-01T10:35:23.517Z,28.50
2023-04-01T10:36:23.559Z,28.54
2023-04-01T10:37:23.629Z,28.52
2023-04-01T10:38:24.668Z,28.50
2023-04-01T10:39:23.701Z,28.50
2023-04-01T10:40:23.740Z,28.48
2023-04-01T10:41:23.707Z,28.54
2023-04-01T10:42:23.714Z,28.51
2023-04-01T10:43:23.718Z,28.51
2023-04-01T10:44:23.746Z,28.50
2023-04-01T10:45:23.737Z,28.46
2023-04-01T10:46:23.770Z,28.50
2023-04-01T10:47:23.776Z,28.53
2023-04-01T10:48:23.769Z,28.48
2023-04-01T10:49:23.766Z,28.54
2023-04-01T10:50:24.607Z,28.51
2023-04-01T10:51:24.149Z,28.54
2023-04-01T10:52:23.800Z,28.48
2023-04-01T10:53:24.585Z,28.47
2023-04-01T10:54:23.803Z,28.52
2023-04-01T10:55:23.807Z,28.54
2023-04-01T10:56:23.820Z,28.55
2023-04-01T10:57:23.866Z,28.57
2023-04-01T10:58:23.894Z,28.46
2023-04-01T10:59:23.847Z,28.52
2023-04-01T11:00:23.856Z,28.48
2023-04-01T11:01:24.631Z,28.48
2023-04-01T11:02:24.127Z,28.46
2023-04-01T11:03:24.090Z,28.51
2023-04-01T11:04:24.027Z,28.54
2023-04-01T11:05:25.460Z,28.50
2023-04-01T11:06:24.184Z,28.52
2023-04-01T11:07:24.271Z,28.55
2023-04-01T11:08:24.308Z,28.57
2023-04-01T11:09:24.385Z,28.56
2023-04-01T11:10:24.446Z,28.56
2023-04-01T11:11:24.508Z,28.55
2023-04-01T11:12:25.458Z,28.54
2023-04-01T11:13:24.649Z,28.57
2023-04-01T11:14:31.606Z,28.56
2023-04-01T11:15:24.727Z,28.63
2023-04-01T11:16:24.791Z,28.54
2023-04-01T11:17:24.761Z,28.51
2023-04-01T11:18:24.782Z,28.57
2023-04-01T11:19:25.596Z,28.52
2023-04-01T11:20:24.802Z,28.57
2023-04-01T11:21:26.777Z,28.54
2023-04-01T11:22:24.788Z,28.56
2023-04-01T11:23:24.825Z,28.50
2023-04-01T11:24:24.807Z,28.51
2023-04-01T11:25:25.629Z,28.53
2023-04-01T11:26:24.813Z,28.56
2023-04-01T11:27:24.859Z,28.51
2023-04-01T11:28:24.860Z,28.47
2023-04-01T11:29:24.841Z,28.51
2023-04-01T11:30:24.843Z,28.51
2023-04-01T11:31:25.526Z,28.54
2023-04-01T11:32:25.612Z,28.46
2023-04-01T11:33:24.864Z,28.55
2023-04-01T11:34:24.862Z,28.58
2023-04-01T11:35:24.881Z,28.55
2023-04-01T11:36:24.876Z,28.63
2023-04-01T11:37:24.915Z,28.59
2023-04-01T11:38:24.966Z,28.63
2023-04-01T11:39:25.080Z,28.62
2023-04-01T11:40:25.478Z,28.62
2023-04-01T11:41:25.488Z,28.56
2023-04-01T11:42:25.480Z,28.58
2023-04-01T11:43:32.990Z,28.54
2023-04-01T11:44:26.434Z,28.58
2023-04-01T11:45:25.480Z,28.58
2023-04-01T11:46:25.539Z,28.58
2023-04-01T11:47:26.756Z,28.54
2023-04-01T11:48:25.497Z,28.58
2023-04-01T11:49:26.478Z,28.58
2023-04-01T11:50:25.487Z,28.57
2023-04-01T11:51:25.529Z,28.58
2023-04-01T11:52:25.580Z,28.53
2023-04-01T11:53:25.631Z,28.56
2023-04-01T11:54:25.707Z,28.51
2023-04-01T11:55:25.782Z,28.54
2023-04-01T11:56:25.836Z,28.56
2023-04-01T11:57:25.941Z,28.56
2023-04-01T11:58:25.966Z,28.52
2023-04-01T11:59:26.024Z,28.61
2023-04-01T12:00:32.648Z,28.48
2023-04-01T12:01:26.451Z,28.58
2023-04-01T12:02:26.504Z,28.56
2023-04-01T12:03:26.658Z,28.51
2023-04-01T12:04:26.698Z,28.58
2023-04-01T12:05:26.489Z,28.57
2023-04-01T12:06:26.493Z,28.57
2023-04-01T12:07:26.622Z,28.53
2023-04-01T12:08:27.131Z,28.51
2023-04-01T12:09:26.492Z,28.48
2023-04-01T12:10:26.503Z,28.58
2023-04-01T12:11:26.515Z,28.59
2023-04-01T12:12:26.500Z,28.51
2023-04-01T12:13:26.501Z,28.50
2023-04-01T12:14:26.502Z,28.56
2023-04-01T12:15:26.501Z,28.56
2023-04-01T12:16:26.524Z,28.57
2023-04-01T12:17:26.540Z,28.53
2023-04-01T12:18:26.495Z,28.58
2023-04-01T12:19:26.496Z,28.54
2023-04-01T12:20:26.496Z,28.53
2023-04-01T12:21:26.502Z,28.51
2023-04-01T12:22:27.118Z,28.58
2023-04-01T12:23:26.642Z,28.50
2023-04-01T12:24:26.720Z,28.57
2023-04-01T12:25:26.801Z,28.53
2023-04-01T12:26:27.625Z,28.58
2023-04-01T12:27:26.955Z,28.53
2023-04-01T12:28:27.008Z,28.60
2023-04-01T12:29:29.620Z,28.56
2023-04-01T12:30:27.069Z,28.56
2023-04-01T12:31:27.092Z,28.57
2023-04-01T12:32:33.673Z,28.57
2023-04-01T12:33:27.098Z,28.57
2023-04-01T12:34:27.083Z,28.53
2023-04-01T12:35:27.127Z,28.54
2023-04-01T12:36:27.101Z,28.57
2023-04-01T12:37:27.117Z,28.60
2023-04-01T12:38:27.127Z,28.61
2023-04-01T12:39:27.133Z,28.53
2023-04-01T12:40:27.150Z,28.59
2023-04-01T12:41:27.150Z,28.59
2023-04-01T12:42:27.162Z,28.64
2023-04-01T12:43:28.152Z,28.57
2023-04-01T12:44:28.149Z,28.58
2023-04-01T12:45:27.182Z,28.56
2023-04-01T12:46:27.244Z,28.54
2023-04-01T12:47:28.160Z,28.57
2023-04-01T12:48:27.208Z,28.58
2023-04-01T12:49:27.215Z,28.57
2023-04-01T12:50:27.292Z,28.57
2023-04-01T12:51:27.353Z,28.58
2023-04-01T12:52:27.418Z,28.57
2023-04-01T12:53:27.539Z,28.52